sensor_id;sensor_type;location;lat;lon;timestamp;pressure;altitude;pressure_sealevel;temperature;humidity
79285;BME280;68734;50.452;11.636;2023-04-25T00:00:17;94725.03;;;4.81;87.65
79285;BME280;68734;50.452;11.636;2023-04-25T00:02:45;94725.88;;;4.82;87.80
79285;BME280;68734;50.452;11.636;2023-04-25T00:05:11;94718.56;;;4.77;87.98
79285;BME280;68734;50.452;11.636;2023-04-25T00:07:40;94731.38;;;4.75;88.05
79285;BME280;68734;50.452;11.636;2023-04-25T00:10:08;94726.84;;;4.75;88.11
79285;BME280;68734;50.452;11.636;2023-04-25T00:12:34;94727.66;;;4.76;88.10
79285;BME280;68734;50.452;11.636;2023-04-25T00:14:59;94722.63;;;4.79;87.44
79285;BME280;68734;50.452;11.636;2023-04-25T00:17:25;94718.09;;;4.80;87.65
79285;BME280;68734;50.452;11.636;2023-04-25T00:19:50;94714.28;;;4.76;87.66
79285;BME280;68734;50.452;11.636;2023-04-25T00:22:16;94727.72;;;4.81;87.55
79285;BME280;68734;50.452;11.636;2023-04-25T00:24:42;94724.56;;;4.84;87.23
79285;BME280;68734;50.452;11.636;2023-04-25T00:27:10;94719.22;;;4.84;87.19
79285;BME280;68734;50.452;11.636;2023-04-25T00:29:36;94713.53;;;4.80;87.18
79285;BME280;68734;50.452;11.636;2023-04-25T00:32:01;94715.00;;;4.88;87.06
79285;BME280;68734;50.452;11.636;2023-04-25T00:34:32;94711.28;;;4.89;87.40
79285;BME280;68734;50.452;11.636;2023-04-25T00:36:57;94704.28;;;4.88;87.15
79285;BME280;68734;50.452;11.636;2023-04-25T00:39:23;94720.34;;;4.88;87.12
79285;BME280;68734;50.452;11.636;2023-04-25T00:41:48;94711.28;;;4.89;87.42
79285;BME280;68734;50.452;11.636;2023-04-25T00:44:15;94715.78;;;4.89;87.27
79285;BME280;68734;50.452;11.636;2023-04-25T00:46:42;94718.22;;;4.90;87.40
79285;BME280;68734;50.452;11.636;2023-04-25T00:49:08;94715.09;;;4.93;87.24
79285;BME280;68734;50.452;11.636;2023-04-25T00:51:33;94706.22;;;4.93;87.10
79285;BME280;68734;50.452;11.636;2023-04-25T00:53:59;94713.53;;;4.97;87.21
79285;BME280;68734;50.452;11.636;2023-04-25T00:56:27;94713.03;;;5.00;86.81
79285;BME280;68734;50.452;11.636;2023-04-25T00:58:53;94715.47;;;5.02;86.76
79285;BME280;68734;50.452;11.636;2023-04-25T01:01:22;94702.88;;;5.03;86.83
79285;BME280;68734;50.452;11.636;2023-04-25T01:03:51;94700.22;;;5.03;86.98
79285;BME280;68734;50.452;11.636;2023-04-25T01:06:18;94703.44;;;5.05;87.19
79285;BME280;68734;50.452;11.636;2023-04-25T01:08:44;94705.88;;;5.06;87.51
79285;BME280;68734;50.452;11.636;2023-04-25T01:11:09;94705.09;;;5.06;87.89
79285;BME280;68734;50.452;11.636;2023-04-25T01:13:37;94705.09;;;5.06;87.82
79285;BME280;68734;50.452;11.636;2023-04-25T01:16:03;94695.41;;;5.05;87.68
79285;BME280;68734;50.452;11.636;2023-04-25T01:18:31;94703.44;;;5.05;87.55
79285;BME280;68734;50.452;11.636;2023-04-25T01:21:05;94687.38;;;5.05;88.27
79285;BME280;68734;50.452;11.636;2023-04-25T01:23:32;94692.53;;;4.89;88.58
79285;BME280;68734;50.452;11.636;2023-04-25T01:25:58;94701.38;;;4.90;87.73
79285;BME280;68734;50.452;11.636;2023-04-25T01:28:24;94696.66;;;4.97;88.13
79285;BME280;68734;50.452;11.636;2023-04-25T01:30:50;94705.25;;;4.99;88.85
79285;BME280;68734;50.452;11.636;2023-04-25T01:33:19;94707.63;;;4.95;87.94
79285;BME280;68734;50.452;11.636;2023-04-25T01:35:48;94699.91;;;4.82;87.16
79285;BME280;68734;50.452;11.636;2023-04-25T01:38:14;94696.03;;;4.73;88.37
79285;BME280;68734;50.452;11.636;2023-04-25T01:40:44;94698.78;;;4.78;88.58
79285;BME280;68734;50.452;11.636;2023-04-25T01:43:10;94700.09;;;4.75;87.29
79285;BME280;68734;50.452;11.636;2023-04-25T01:45:40;94691.25;;;4.75;87.19
79285;BME280;68734;50.452;11.636;2023-04-25T01:48:07;94686.22;;;4.78;87.27
79285;BME280;68734;50.452;11.636;2023-04-25T01:50:35;94683.06;;;4.82;87.68
79285;BME280;68734;50.452;11.636;2023-04-25T01:53:01;94682.81;;;4.83;87.79
79285;BME280;68734;50.452;11.636;2023-04-25T01:55:27;94686.63;;;4.87;87.50
79285;BME280;68734;50.452;11.636;2023-04-25T01:57:53;94694.72;;;4.92;87.76
79285;BME280;68734;50.452;11.636;2023-04-25T02:00:18;94691.00;;;4.93;88.00
79285;BME280;68734;50.452;11.636;2023-04-25T02:02:44;94692.59;;;4.94;88.01
79285;BME280;68734;50.452;11.636;2023-04-25T02:05:09;94689.13;;;4.94;88.48
79285;BME280;68734;50.452;11.636;2023-04-25T02:07:35;94686.22;;;4.95;87.62
79285;BME280;68734;50.452;11.636;2023-04-25T02:10:00;94683.25;;;4.97;87.90
79285;BME280;68734;50.452;11.636;2023-04-25T02:12:28;94687.25;;;4.94;87.64
79285;BME280;68734;50.452;11.636;2023-04-25T02:14:53;94684.56;;;4.94;87.62
79285;BME280;68734;50.452;11.636;2023-04-25T02:17:19;94692.13;;;4.97;87.32
79285;BME280;68734;50.452;11.636;2023-04-25T02:19:46;94691.00;;;4.93;88.64
79285;BME280;68734;50.452;11.636;2023-04-25T02:22:12;94689.69;;;4.79;86.98
79285;BME280;68734;50.452;11.636;2023-04-25T02:24:37;94685.19;;;4.79;88.11
79285;BME280;68734;50.452;11.636;2023-04-25T02:27:05;94686.97;;;4.74;88.92
79285;BME280;68734;50.452;11.636;2023-04-25T02:29:33;94687.44;;;4.71;89.42
79285;BME280;68734;50.452;11.636;2023-04-25T02:31:58;94688.50;;;4.70;89.85
79285;BME280;68734;50.452;11.636;2023-04-25T02:34:24;94674.25;;;4.64;88.91
79285;BME280;68734;50.452;11.636;2023-04-25T02:36:49;94678.13;;;4.56;88.83
79285;BME280;68734;50.452;11.636;2023-04-25T02:39:22;94670.09;;;4.56;89.74
79285;BME280;68734;50.452;11.636;2023-04-25T02:41:50;94671.25;;;4.60;88.94
79285;BME280;68734;50.452;11.636;2023-04-25T02:44:18;94661.59;;;4.59;88.90
79285;BME280;68734;50.452;11.636;2023-04-25T02:46:43;94656.25;;;4.59;88.64
79285;BME280;68734;50.452;11.636;2023-04-25T02:49:11;94657.25;;;4.53;88.52
79285;BME280;68734;50.452;11.636;2023-04-25T02:51:37;94656.41;;;4.53;87.46
79285;BME280;68734;50.452;11.636;2023-04-25T02:54:02;94664.75;;;4.56;87.79
79285;BME280;68734;50.452;11.636;2023-04-25T02:56:28;94656.69;;;4.51;87.68
79285;BME280;68734;50.452;11.636;2023-04-25T02:58:56;94651.63;;;4.55;88.10
79285;BME280;68734;50.452;11.636;2023-04-25T03:01:21;94643.53;;;4.50;87.92
79285;BME280;68734;50.452;11.636;2023-04-25T03:03:46;94656.69;;;4.51;87.70
79285;BME280;68734;50.452;11.636;2023-04-25T03:06:12;94644.16;;;4.57;88.42
79285;BME280;68734;50.452;11.636;2023-04-25T03:08:37;94647.09;;;4.55;88.71
79285;BME280;68734;50.452;11.636;2023-04-25T03:11:03;94648.25;;;4.59;88.69
79285;BME280;68734;50.452;11.636;2023-04-25T03:13:28;94655.50;;;4.64;88.52
79285;BME280;68734;50.452;11.636;2023-04-25T03:15:55;94649.06;;;4.43;89.15
79285;BME280;68734;50.452;11.636;2023-04-25T03:18:20;94633.56;;;4.28;90.21
79285;BME280;68734;50.452;11.636;2023-04-25T03:20:46;94643.38;;;4.23;89.57
79285;BME280;68734;50.452;11.636;2023-04-25T03:23:11;94643.22;;;4.12;89.38
79285;BME280;68734;50.452;11.636;2023-04-25T03:25:39;94640.13;;;4.04;90.05
79285;BME280;68734;50.452;11.636;2023-04-25T03:28:05;94642.75;;;4.15;90.06
79285;BME280;68734;50.452;11.636;2023-04-25T03:30:31;94643.88;;;4.19;89.86
79285;BME280;68734;50.452;11.636;2023-04-25T03:32:56;94645.00;;;4.24;90.18
79285;BME280;68734;50.452;11.636;2023-04-25T03:35:22;94651.16;;;4.24;90.93
79285;BME280;68734;50.452;11.636;2023-04-25T03:37:50;94653.25;;;4.22;91.55
79285;BME280;68734;50.452;11.636;2023-04-25T03:40:15;94653.59;;;4.26;91.42
79285;BME280;68734;50.452;11.636;2023-04-25T03:42:43;94651.31;;;4.17;90.31
79285;BME280;68734;50.452;11.636;2023-04-25T03:45:14;94651.22;;;4.12;90.85
79285;BME280;68734;50.452;11.636;2023-04-25T03:47:39;94649.84;;;4.10;90.56
79285;BME280;68734;50.452;11.636;2023-04-25T03:50:05;94647.41;;;4.08;90.17
79285;BME280;68734;50.452;11.636;2023-04-25T03:52:30;94646.13;;;4.11;91.15
79285;BME280;68734;50.452;11.636;2023-04-25T03:54:56;94648.22;;;4.09;89.65
79285;BME280;68734;50.452;11.636;2023-04-25T03:57:21;94658.84;;;4.04;90.09
79285;BME280;68734;50.452;11.636;2023-04-25T03:59:47;94645.66;;;4.14;90.35
79285;BME280;68734;50.452;11.636;2023-04-25T04:02:12;94660.88;;;4.13;89.58
79285;BME280;68734;50.452;11.636;2023-04-25T04:04:38;94659.06;;;4.02;89.47
79285;BME280;68734;50.452;11.636;2023-04-25T04:07:03;94644.41;;;3.88;90.03
79285;BME280;68734;50.452;11.636;2023-04-25T04:09:28;94661.16;;;3.83;89.82
79285;BME280;68734;50.452;11.636;2023-04-25T04:11:56;94669.63;;;3.80;89.82
79285;BME280;68734;50.452;11.636;2023-04-25T04:14:22;94673.59;;;3.77;88.77
79285;BME280;68734;50.452;11.636;2023-04-25T04:16:47;94683.63;;;3.70;90.00
79285;BME280;68734;50.452;11.636;2023-04-25T04:19:13;94683.22;;;3.50;89.51
79285;BME280;68734;50.452;11.636;2023-04-25T04:21:38;94680.94;;;3.42;89.57
79285;BME280;68734;50.452;11.636;2023-04-25T04:24:03;94689.91;;;3.35;89.96
79285;BME280;68734;50.452;11.636;2023-04-25T04:26:32;94687.28;;;3.12;89.71
79285;BME280;68734;50.452;11.636;2023-04-25T04:29:00;94692.75;;;3.05;90.54
79285;BME280;68734;50.452;11.636;2023-04-25T04:31:25;94686.25;;;3.01;89.42
79285;BME280;68734;50.452;11.636;2023-04-25T04:33:50;94694.34;;;2.94;89.57
79285;BME280;68734;50.452;11.636;2023-04-25T04:36:17;94693.56;;;2.94;90.16
79285;BME280;68734;50.452;11.636;2023-04-25T04:38:45;94689.88;;;2.83;89.90
79285;BME280;68734;50.452;11.636;2023-04-25T04:41:10;94680.56;;;2.74;91.55
79285;BME280;68734;50.452;11.636;2023-04-25T04:43:38;94689.50;;;2.79;90.46
79285;BME280;68734;50.452;11.636;2023-04-25T04:46:04;94687.78;;;2.85;90.47
79285;BME280;68734;50.452;11.636;2023-04-25T04:48:35;94680.22;;;2.82;90.47
79285;BME280;68734;50.452;11.636;2023-04-25T04:51:01;94687.78;;;2.85;89.80
79285;BME280;68734;50.452;11.636;2023-04-25T04:53:27;94683.94;;;2.93;91.24
79285;BME280;68734;50.452;11.636;2023-04-25T04:55:52;94682.16;;;2.98;91.81
79285;BME280;68734;50.452;11.636;2023-04-25T04:58:20;94684.50;;;3.07;91.10
79285;BME280;68734;50.452;11.636;2023-04-25T05:00:45;94683.78;;;3.11;90.68
79285;BME280;68734;50.452;11.636;2023-04-25T05:03:11;94679.50;;;3.10;90.46
79285;BME280;68734;50.452;11.636;2023-04-25T05:05:39;94677.41;;;3.12;90.74
79285;BME280;68734;50.452;11.636;2023-04-25T05:08:08;94686.81;;;3.15;91.11
79285;BME280;68734;50.452;11.636;2023-04-25T05:10:33;94686.19;;;3.25;91.39
79285;BME280;68734;50.452;11.636;2023-04-25T05:12:59;94686.06;;;3.31;91.28
79285;BME280;68734;50.452;11.636;2023-04-25T05:15:24;94683.03;;;3.39;91.40
79285;BME280;68734;50.452;11.636;2023-04-25T05:17:50;94684.88;;;3.51;90.76
79285;BME280;68734;50.452;11.636;2023-04-25T05:20:15;94697.84;;;3.59;89.92
79285;BME280;68734;50.452;11.636;2023-04-25T05:22:43;94692.50;;;3.59;89.80
79285;BME280;68734;50.452;11.636;2023-04-25T05:25:08;94697.00;;;3.58;88.87
79285;BME280;68734;50.452;11.636;2023-04-25T05:27:34;94698.50;;;3.66;89.04
79285;BME280;68734;50.452;11.636;2023-04-25T05:30:00;94699.63;;;3.70;87.31
79285;BME280;68734;50.452;11.636;2023-04-25T05:32:27;94697.06;;;3.75;87.67
79285;BME280;68734;50.452;11.636;2023-04-25T05:35:07;94697.41;;;3.79;88.00
79285;BME280;68734;50.452;11.636;2023-04-25T05:37:35;94699.44;;;3.89;90.40
79285;BME280;68734;50.452;11.636;2023-04-25T05:40:01;94702.78;;;3.96;87.69
79285;BME280;68734;50.452;11.636;2023-04-25T05:42:31;94712.50;;;4.02;86.89
79285;BME280;68734;50.452;11.636;2023-04-25T05:44:56;94697.78;;;4.16;86.89
79285;BME280;68734;50.452;11.636;2023-04-25T05:47:24;94704.72;;;4.46;86.47
79285;BME280;68734;50.452;11.636;2023-04-25T05:49:50;94709.34;;;4.68;85.22
79285;BME280;68734;50.452;11.636;2023-04-25T05:52:18;94705.53;;;5.19;83.06
79285;BME280;68734;50.452;11.636;2023-04-25T05:54:43;94703.09;;;5.18;82.71
79285;BME280;68734;50.452;11.636;2023-04-25T05:57:19;94699.88;;;5.16;82.76
79285;BME280;68734;50.452;11.636;2023-04-25T05:59:44;94709.09;;;5.25;83.04
79285;BME280;68734;50.452;11.636;2023-04-25T06:02:10;94711.69;;;5.20;84.76
79285;BME280;68734;50.452;11.636;2023-04-25T06:04:35;94718.81;;;5.31;82.08
79285;BME280;68734;50.452;11.636;2023-04-25T06:07:01;94716.94;;;5.32;83.34
79285;BME280;68734;50.452;11.636;2023-04-25T06:09:29;94720.63;;;5.26;83.42
79285;BME280;68734;50.452;11.636;2023-04-25T06:11:54;94722.53;;;5.30;81.93
79285;BME280;68734;50.452;11.636;2023-04-25T06:14:20;94719.56;;;5.49;84.03
79285;BME280;68734;50.452;11.636;2023-04-25T06:16:45;94725.41;;;5.90;81.11
79285;BME280;68734;50.452;11.636;2023-04-25T06:19:16;94727.44;;;6.27;80.26
79285;BME280;68734;50.452;11.636;2023-04-25T06:21:44;94726.41;;;8.03;74.99
79285;BME280;68734;50.452;11.636;2023-04-25T06:24:09;94721.72;;;8.56;72.47
79285;BME280;68734;50.452;11.636;2023-04-25T06:26:35;94712.41;;;7.96;72.76
79285;BME280;68734;50.452;11.636;2023-04-25T06:29:01;94719.00;;;7.10;75.79
79285;BME280;68734;50.452;11.636;2023-04-25T06:31:26;94724.84;;;6.37;76.58
79285;BME280;68734;50.452;11.636;2023-04-25T06:33:54;94724.19;;;6.84;75.34
79285;BME280;68734;50.452;11.636;2023-04-25T06:36:20;94725.53;;;7.24;75.78
79285;BME280;68734;50.452;11.636;2023-04-25T06:38:50;94727.81;;;6.35;72.77
79285;BME280;68734;50.452;11.636;2023-04-25T06:41:18;94723.28;;;5.92;76.19
79285;BME280;68734;50.452;11.636;2023-04-25T06:43:44;94737.22;;;6.38;73.37
79285;BME280;68734;50.452;11.636;2023-04-25T06:46:09;94721.19;;;9.01;65.43
79285;BME280;68734;50.452;11.636;2023-04-25T06:48:35;94724.50;;;7.93;67.09
79285;BME280;68734;50.452;11.636;2023-04-25T06:51:00;94726.81;;;7.64;68.66
79285;BME280;68734;50.452;11.636;2023-04-25T06:53:26;94723.72;;;6.33;70.94
79285;BME280;68734;50.452;11.636;2023-04-25T06:55:51;94736.50;;;5.76;75.05
79285;BME280;68734;50.452;11.636;2023-04-25T06:58:17;94724.19;;;5.31;77.33
79285;BME280;68734;50.452;11.636;2023-04-25T07:00:42;94732.63;;;5.67;77.05
79285;BME280;68734;50.452;11.636;2023-04-25T07:03:08;94734.38;;;5.95;78.78
79285;BME280;68734;50.452;11.636;2023-04-25T07:05:33;94723.06;;;6.15;76.64
79285;BME280;68734;50.452;11.636;2023-04-25T07:07:58;94726.16;;;6.34;76.11
79285;BME280;68734;50.452;11.636;2023-04-25T07:10:25;94733.44;;;6.39;75.80
79285;BME280;68734;50.452;11.636;2023-04-25T07:12:52;94729.75;;;6.45;76.30
79285;BME280;68734;50.452;11.636;2023-04-25T07:15:20;94733.44;;;6.39;71.62
79285;BME280;68734;50.452;11.636;2023-04-25T07:17:45;94740.97;;;5.27;76.32
79285;BME280;68734;50.452;11.636;2023-04-25T07:20:13;94744.31;;;5.56;75.59
79285;BME280;68734;50.452;11.636;2023-04-25T07:22:39;94744.88;;;6.29;74.37
79285;BME280;68734;50.452;11.636;2023-04-25T07:25:05;94744.25;;;5.95;74.97
79285;BME280;68734;50.452;11.636;2023-04-25T07:27:31;94741.16;;;6.57;74.64
79285;BME280;68734;50.452;11.636;2023-04-25T07:29:59;94741.44;;;5.85;74.35
79285;BME280;68734;50.452;11.636;2023-04-25T07:32:25;94744.44;;;5.66;74.18
79285;BME280;68734;50.452;11.636;2023-04-25T07:34:50;94746.75;;;5.79;76.50
79285;BME280;68734;50.452;11.636;2023-04-25T07:37:16;94743.06;;;5.86;74.34
79285;BME280;68734;50.452;11.636;2023-04-25T07:39:44;94749.09;;;5.54;72.49
79285;BME280;68734;50.452;11.636;2023-04-25T07:42:11;94750.84;;;5.65;70.88
79285;BME280;68734;50.452;11.636;2023-04-25T07:44:39;94753.28;;;5.67;69.92
79285;BME280;68734;50.452;11.636;2023-04-25T07:47:06;94754.94;;;5.51;74.14
79285;BME280;68734;50.452;11.636;2023-04-25T07:49:35;94751.69;;;5.93;71.30
79285;BME280;68734;50.452;11.636;2023-04-25T07:52:01;94761.25;;;5.39;70.22
79285;BME280;68734;50.452;11.636;2023-04-25T07:54:27;94753.66;;;5.53;73.13
79285;BME280;68734;50.452;11.636;2023-04-25T07:56:53;94755.25;;;5.54;70.08
79285;BME280;68734;50.452;11.636;2023-04-25T07:59:18;94759.00;;;5.53;69.88
79285;BME280;68734;50.452;11.636;2023-04-25T08:01:43;94772.97;;;5.77;71.30
79285;BME280;68734;50.452;11.636;2023-04-25T08:04:09;94758.47;;;5.73;71.93
79285;BME280;68734;50.452;11.636;2023-04-25T08:06:34;94763.81;;;5.73;71.27
79285;BME280;68734;50.452;11.636;2023-04-25T08:09:01;94764.50;;;5.86;72.23
79285;BME280;68734;50.452;11.636;2023-04-25T08:11:26;94762.47;;;6.42;71.03
79285;BME280;68734;50.452;11.636;2023-04-25T08:13:52;94761.84;;;6.94;67.08
79285;BME280;68734;50.452;11.636;2023-04-25T08:16:17;94764.34;;;6.42;64.28
79285;BME280;68734;50.452;11.636;2023-04-25T08:18:43;94760.50;;;6.10;67.91
79285;BME280;68734;50.452;11.636;2023-04-25T08:21:08;94777.56;;;6.53;66.01
79285;BME280;68734;50.452;11.636;2023-04-25T08:23:38;94781.03;;;6.22;67.43
79285;BME280;68734;50.452;11.636;2023-04-25T08:26:06;94778.50;;;5.93;71.09
79285;BME280;68734;50.452;11.636;2023-04-25T08:28:32;94784.94;;;5.92;68.85
79285;BME280;68734;50.452;11.636;2023-04-25T08:30:57;94789.88;;;6.00;68.79
79285;BME280;68734;50.452;11.636;2023-04-25T08:33:23;94793.13;;;6.02;67.37
79285;BME280;68734;50.452;11.636;2023-04-25T08:35:51;94798.72;;;6.23;67.81
79285;BME280;68734;50.452;11.636;2023-04-25T08:38:17;94800.25;;;6.13;66.18
79285;BME280;68734;50.452;11.636;2023-04-25T08:40:44;94800.63;;;6.27;67.70
79285;BME280;68734;50.452;11.636;2023-04-25T08:43:13;94816.34;;;6.13;67.87
79285;BME280;68734;50.452;11.636;2023-04-25T08:45:40;94829.06;;;5.84;67.91
79285;BME280;68734;50.452;11.636;2023-04-25T08:48:16;94826.06;;;6.19;69.15
79285;BME280;68734;50.452;11.636;2023-04-25T08:50:50;94817.16;;;6.41;69.06
79285;BME280;68734;50.452;11.636;2023-04-25T08:53:22;94832.97;;;6.37;67.29
79285;BME280;68734;50.452;11.636;2023-04-25T08:55:50;94830.06;;;6.44;66.19
79285;BME280;68734;50.452;11.636;2023-04-25T08:58:18;94835.50;;;6.05;68.11
79285;BME280;68734;50.452;11.636;2023-04-25T09:00:46;94842.25;;;5.69;69.06
79285;BME280;68734;50.452;11.636;2023-04-25T09:03:12;94839.13;;;5.77;68.09
79285;BME280;68734;50.452;11.636;2023-04-25T09:05:39;94840.63;;;6.29;69.33
79285;BME280;68734;50.452;11.636;2023-04-25T09:08:08;94841.88;;;5.99;67.48
79285;BME280;68734;50.452;11.636;2023-04-25T09:10:33;94847.31;;;6.26;67.92
79285;BME280;68734;50.452;11.636;2023-04-25T09:13:09;94849.66;;;6.23;68.70
79285;BME280;68734;50.452;11.636;2023-04-25T09:15:53;94853.09;;;5.96;68.96
79285;BME280;68734;50.452;11.636;2023-04-25T09:18:45;94860.03;;;6.14;66.56
79285;BME280;68734;50.452;11.636;2023-04-25T09:21:11;94857.56;;;6.56;66.60
79285;BME280;68734;50.452;11.636;2023-04-25T09:23:44;94865.97;;;6.92;67.25
79285;BME280;68734;50.452;11.636;2023-04-25T09:26:14;94865.44;;;6.90;64.87
79285;BME280;68734;50.452;11.636;2023-04-25T09:28:40;94864.16;;;6.71;65.75
79285;BME280;68734;50.452;11.636;2023-04-25T09:31:10;94878.59;;;6.43;66.62
79285;BME280;68734;50.452;11.636;2023-04-25T09:33:35;94882.03;;;6.38;65.85
79285;BME280;68734;50.452;11.636;2023-04-25T09:36:06;94884.16;;;6.36;66.40
79285;BME280;68734;50.452;11.636;2023-04-25T09:38:40;94891.91;;;5.93;66.91
79285;BME280;68734;50.452;11.636;2023-04-25T09:41:09;94892.91;;;5.70;68.14
79285;BME280;68734;50.452;11.636;2023-04-25T09:43:35;94896.00;;;5.62;68.70
79285;BME280;68734;50.452;11.636;2023-04-25T09:46:08;94901.47;;;5.33;68.92
79285;BME280;68734;50.452;11.636;2023-04-25T09:48:34;94896.41;;;5.37;70.35
79285;BME280;68734;50.452;11.636;2023-04-25T09:53:45;94895.22;;;5.62;69.87
79285;BME280;68734;50.452;11.636;2023-04-25T09:56:18;94890.75;;;5.50;72.18
79285;BME280;68734;50.452;11.636;2023-04-25T09:58:44;94895.56;;;6.04;68.74
79285;BME280;68734;50.452;11.636;2023-04-25T10:01:12;94891.44;;;5.79;70.11
79285;BME280;68734;50.452;11.636;2023-04-25T10:03:39;94885.28;;;5.96;69.79
79285;BME280;68734;50.452;11.636;2023-04-25T10:06:08;94892.13;;;6.31;68.19
79285;BME280;68734;50.452;11.636;2023-04-25T10:08:39;94895.88;;;6.74;67.06
79285;BME280;68734;50.452;11.636;2023-04-25T10:11:07;94894.38;;;6.39;66.39
79285;BME280;68734;50.452;11.636;2023-04-25T10:13:34;94896.38;;;6.27;67.38
79285;BME280;68734;50.452;11.636;2023-04-25T10:16:01;94894.81;;;6.09;67.83
79285;BME280;68734;50.452;11.636;2023-04-25T10:18:29;94896.47;;;5.76;68.63
79285;BME280;68734;50.452;11.636;2023-04-25T10:20:56;94889.19;;;5.71;68.83
79285;BME280;68734;50.452;11.636;2023-04-25T10:23:23;94901.34;;;5.79;68.53
79285;BME280;68734;50.452;11.636;2023-04-25T10:25:50;94885.59;;;5.83;69.82
79285;BME280;68734;50.452;11.636;2023-04-25T10:28:16;94910.28;;;6.02;69.65
79285;BME280;68734;50.452;11.636;2023-04-25T10:33:39;94907.66;;;5.90;69.90
79285;BME280;68734;50.452;11.636;2023-04-25T10:36:17;94920.53;;;5.37;71.90
79285;BME280;68734;50.452;11.636;2023-04-25T10:38:44;94916.88;;;5.26;70.93
79285;BME280;68734;50.452;11.636;2023-04-25T10:41:11;94919.56;;;5.60;71.90
79285;BME280;68734;50.452;11.636;2023-04-25T10:43:42;94921.28;;;6.05;71.58
79285;BME280;68734;50.452;11.636;2023-04-25T10:48:54;94917.91;;;5.59;69.44
79285;BME280;68734;50.452;11.636;2023-04-25T10:51:23;94933.28;;;5.47;72.37
79285;BME280;68734;50.452;11.636;2023-04-25T10:54:08;94926.75;;;5.09;74.80
79285;BME280;68734;50.452;11.636;2023-04-25T10:56:39;94937.56;;;5.14;75.04
79285;BME280;68734;50.452;11.636;2023-04-25T10:59:10;94929.34;;;5.20;71.32
79285;BME280;68734;50.452;11.636;2023-04-25T11:01:46;94924.59;;;5.73;69.93
79285;BME280;68734;50.452;11.636;2023-04-25T11:04:30;94920.63;;;6.15;69.51
79285;BME280;68734;50.452;11.636;2023-04-25T11:09:36;94922.63;;;6.25;67.14
79285;BME280;68734;50.452;11.636;2023-04-25T11:12:03;94919.19;;;6.07;68.55
79285;BME280;68734;50.452;11.636;2023-04-25T11:14:30;94924.06;;;5.93;68.35
79285;BME280;68734;50.452;11.636;2023-04-25T11:16:59;94922.94;;;6.06;69.20
79285;BME280;68734;50.452;11.636;2023-04-25T11:19:26;94941.16;;;5.53;70.52
79285;BME280;68734;50.452;11.636;2023-04-25T11:21:58;94937.66;;;5.53;73.12
79285;BME280;68734;50.452;11.636;2023-04-25T11:24:30;94950.38;;;5.29;72.39
79285;BME280;68734;50.452;11.636;2023-04-25T11:26:58;94945.63;;;5.48;74.43
79285;BME280;68734;50.452;11.636;2023-04-25T11:29:27;94940.00;;;5.66;72.84
79285;BME280;68734;50.452;11.636;2023-04-25T11:31:54;94939.28;;;5.54;70.86
79285;BME280;68734;50.452;11.636;2023-04-25T11:34:23;94926.53;;;5.61;69.86
79285;BME280;68734;50.452;11.636;2023-04-25T11:36:49;94937.56;;;5.82;69.91
79285;BME280;68734;50.452;11.636;2023-04-25T11:39:15;94925.59;;;5.89;68.22
79285;BME280;68734;50.452;11.636;2023-04-25T11:41:41;94948.78;;;5.78;66.46
79285;BME280;68734;50.452;11.636;2023-04-25T11:44:09;94945.69;;;6.04;67.48
79285;BME280;68734;50.452;11.636;2023-04-25T11:46:34;94959.56;;;5.50;68.30
79285;BME280;68734;50.452;11.636;2023-04-25T11:49:00;94954.75;;;5.18;69.18
79285;BME280;68734;50.452;11.636;2023-04-25T11:51:25;94964.47;;;5.07;74.72
79285;BME280;68734;50.452;11.636;2023-04-25T11:53:51;94952.47;;;5.10;74.72
79285;BME280;68734;50.452;11.636;2023-04-25T11:56:17;94961.28;;;5.56;72.43
79285;BME280;68734;50.452;11.636;2023-04-25T11:59:02;94980.44;;;5.48;73.12
79285;BME280;68734;50.452;11.636;2023-04-25T12:01:38;94995.53;;;4.39;75.39
79285;BME280;68734;50.452;11.636;2023-04-25T12:04:20;94990.66;;;4.12;81.04
79285;BME280;68734;50.452;11.636;2023-04-25T12:06:48;94988.81;;;3.77;79.63
79285;BME280;68734;50.452;11.636;2023-04-25T12:09:15;94984.00;;;4.15;80.84
79285;BME280;68734;50.452;11.636;2023-04-25T12:11:47;94991.03;;;4.56;78.94
79285;BME280;68734;50.452;11.636;2023-04-25T12:14:22;94993.41;;;4.93;78.36
79285;BME280;68734;50.452;11.636;2023-04-25T12:16:51;94995.13;;;4.99;78.28
79285;BME280;68734;50.452;11.636;2023-04-25T12:19:18;94993.47;;;4.98;76.84
79285;BME280;68734;50.452;11.636;2023-04-25T12:21:47;94997.78;;;5.28;81.33
79285;BME280;68734;50.452;11.636;2023-04-25T12:24:23;94994.41;;;5.50;75.22
79285;BME280;68734;50.452;11.636;2023-04-25T12:26:59;94997.47;;;5.13;76.01
79285;BME280;68734;50.452;11.636;2023-04-25T12:29:26;94992.13;;;5.42;74.16
79285;BME280;68734;50.452;11.636;2023-04-25T12:31:59;94987.75;;;5.69;74.18
79285;BME280;68734;50.452;11.636;2023-04-25T12:34:27;94981.41;;;6.09;72.56
79285;BME280;68734;50.452;11.636;2023-04-25T12:36:53;94977.63;;;5.71;69.73
79285;BME280;68734;50.452;11.636;2023-04-25T12:39:22;94981.78;;;5.96;71.53
79285;BME280;68734;50.452;11.636;2023-04-25T12:41:49;94982.72;;;6.24;69.68
79285;BME280;68734;50.452;11.636;2023-04-25T12:44:15;94987.41;;;5.83;69.88
79285;BME280;68734;50.452;11.636;2023-04-25T12:46:41;95003.75;;;5.64;70.48
79285;BME280;68734;50.452;11.636;2023-04-25T12:49:07;94995.59;;;5.59;70.46
79285;BME280;68734;50.452;11.636;2023-04-25T12:51:36;94990.66;;;5.51;71.29
79285;BME280;68734;50.452;11.636;2023-04-25T12:54:03;94991.72;;;5.67;70.57
79285;BME280;68734;50.452;11.636;2023-04-25T12:56:30;94978.09;;;6.02;68.30
79285;BME280;68734;50.452;11.636;2023-04-25T12:58:56;94987.09;;;6.30;66.71
79285;BME280;68734;50.452;11.636;2023-04-25T13:01:21;94985.56;;;6.39;68.78
79285;BME280;68734;50.452;11.636;2023-04-25T13:03:47;94994.28;;;6.29;67.08
79285;BME280;68734;50.452;11.636;2023-04-25T13:06:14;94992.44;;;6.30;67.34
79285;BME280;68734;50.452;11.636;2023-04-25T13:08:40;94985.97;;;6.09;67.04
79285;BME280;68734;50.452;11.636;2023-04-25T13:11:06;94990.84;;;6.12;67.16